地図

経路データ

SID SEASON NUMBER BASIN SUBBASIN NAME ISO_TIME NATURE LAT LON WMO_WIND WMO_PRES WMO_AGENCY TRACK_TYPE DIST2LAND LANDFALL IFLAG USA_AGENCY USA_ATCF_ID USA_LAT USA_LON USA_RECORD USA_STATUS USA_WIND USA_PRES USA_SSHS USA_R34_NE USA_R34_SE USA_R34_SW USA_R34_NW USA_R50_NE USA_R50_SE USA_R50_SW USA_R50_NW USA_R64_NE USA_R64_SE USA_R64_SW USA_R64_NW USA_POCI USA_ROCI USA_RMW USA_EYE TOKYO_LAT TOKYO_LON TOKYO_GRADE TOKYO_WIND TOKYO_PRES TOKYO_R50_DIR TOKYO_R50_LONG TOKYO_R50_SHORT TOKYO_R30_DIR TOKYO_R30_LONG TOKYO_R30_SHORT TOKYO_LAND CMA_LAT CMA_LON CMA_CAT CMA_WIND CMA_PRES HKO_LAT HKO_LON HKO_CAT HKO_WIND HKO_PRES NEWDELHI_LAT NEWDELHI_LON NEWDELHI_GRADE NEWDELHI_WIND NEWDELHI_PRES NEWDELHI_CI NEWDELHI_DP NEWDELHI_POCI REUNION_LAT REUNION_LON REUNION_TYPE REUNION_WIND REUNION_PRES REUNION_TNUM REUNION_CI REUNION_RMW REUNION_R34_NE REUNION_R34_SE REUNION_R34_SW REUNION_R34_NW REUNION_R50_NE REUNION_R50_SE REUNION_R50_SW REUNION_R50_NW REUNION_R64_NE REUNION_R64_SE REUNION_R64_SW REUNION_R64_NW BOM_LAT BOM_LON BOM_TYPE BOM_WIND BOM_PRES BOM_TNUM BOM_CI BOM_RMW BOM_R34_NE BOM_R34_SE BOM_R34_SW BOM_R34_NW BOM_R50_NE BOM_R50_SE BOM_R50_SW BOM_R50_NW BOM_R64_NE BOM_R64_SE BOM_R64_SW BOM_R64_NW BOM_ROCI BOM_POCI BOM_EYE BOM_POS_METHOD BOM_PRES_METHOD NADI_LAT NADI_LON NADI_CAT NADI_WIND NADI_PRES WELLINGTON_LAT WELLINGTON_LON WELLINGTON_WIND WELLINGTON_PRES DS824_LAT DS824_LON DS824_STAGE DS824_WIND DS824_PRES TD9636_LAT TD9636_LON TD9636_STAGE TD9636_WIND TD9636_PRES TD9635_LAT TD9635_LON TD9635_WIND TD9635_PRES TD9635_ROCI NEUMANN_LAT NEUMANN_LON NEUMANN_CLASS NEUMANN_WIND NEUMANN_PRES MLC_LAT MLC_LON MLC_CLASS MLC_WIND MLC_PRES USA_GUST BOM_GUST BOM_GUST_PER REUNION_GUST REUNION_GUST_PER USA_SEAHGT USA_SEARAD_NE USA_SEARAD_SE USA_SEARAD_SW USA_SEARAD_NW STORM_SPEED STORM_DIR
2021214N23154 2021 36 WP MM NOT_NAMED 2021-08-02 06:00:00 TS 22.9000 154.200 PROVISIONAL 1914 1868 O_____________ tcgp WP122021 22.9000 154.200 TD 25 1002 -1 1006 110 35 8 321
2021214N23154 2021 36 WP MM NOT_NAMED 2021-08-02 09:00:00 TS 23.1977 153.935 PROVISIONAL 1868 1813 P_____________ WP122021 23.1977 153.935 TD 27 1002 -1 1007 110 35 9 330
2021214N23154 2021 36 WP MM NOT_NAMED 2021-08-02 12:00:00 TS 23.7000 153.700 PROVISIONAL 1813 1733 O_____________ tcgp WP122021 23.7000 153.700 TD 30 1003 -1 1008 110 35 14 343
2021214N23154 2021 36 WP MM NOT_NAMED 2021-08-02 15:00:00 TS 24.5197 153.495 PROVISIONAL 1733 1640 P_____________ WP122021 24.5197 153.495 TD 30 1001 -1 1008 110 35 18 345
2021214N23154 2021 36 WP MM NOT_NAMED 2021-08-02 18:00:00 TS 25.4000 153.200 PROVISIONAL 1640 1558 O_____________ tcgp WP122021 25.4000 153.200 TD 30 1000 -1 1008 110 35 17 335
2021214N23154 2021 36 WP MM NOT_NAMED 2021-08-02 21:00:00 TS 26.0600 152.710 PROVISIONAL 1550 1468 P_____________ WP122021 26.0998 152.733 TD 29 1001 -1 1008 110 35 16 321
2021214N23154 2021 36 WP MM NOT_NAMED 2021-08-03 00:00:00 TS 26.6000 152.100 PROVISIONAL 1468 1402 O_____________ tcvitals WP122021 26.6000 152.100 TD 29 1002 -1 1008 110 35 15 308
2021214N23154 2021 36 WP MM NOT_NAMED 2021-08-03 03:00:00 TS 26.9463 151.425 PROVISIONAL 1395 1322 P_____________ WP122021 26.8464 151.339 TD -5 1008 110 35 14 298
2021214N23154 2021 36 WP MM NOT_NAMED 2021-08-03 06:00:00 TS 27.2707 150.673 PROVISIONAL 1314 1211 O_____________ tcvitals WP122021 26.9649 150.503 TD -5 1008 110 35 17 305
2021214N23154 2021 36 WP MM NOT_NAMED 2021-08-03 09:00:00 TS 27.9158 149.891 PROVISIONAL 1211 1108 P_____________ WP122021 27.0253 149.634 TD -5 1008 110 35 19 316
2021214N23154 2021 36 WP MM NOT_NAMED 2021-08-03 12:00:00 NR 28.6626 149.138 PROVISIONAL 1093 1026 O_____________ tcvitals WP122021 27.3131 148.889 TD -5 1008 110 35 17 320
2021214N23154 2021 36 WP MM NOT_NAMED 2021-08-03 15:00:00 NR 29.1884 148.662 PROVISIONAL 1026 984 P_____________ WP122021 28.2584 148.509 TD -5 1008 110 35 11 301
2021214N23154 2021 36 WP MM NOT_NAMED 2021-08-03 18:00:00 NR 29.2000 148.100 PROVISIONAL 984 922 O_____________ tcgp WP122021 29.2000 148.100 DB 20 1006 -3 1008 110 35 12 277
2021214N23154 2021 36 WP MM NOT_NAMED 2021-08-03 21:00:00 NR 29.3420 147.290 PROVISIONAL 922 848 P_____________ WP122021 29.4687 147.311 DB 20 1006 -3 1008 110 35 16 281
2021214N23154 2021 36 WP MM NOT_NAMED 2021-08-04 00:00:00 NR 29.5000 146.300 PROVISIONAL 842 760 O_____________ tcgp WP122021 29.5000 146.300 DB 20 1007 -3 1008 110 35 19 280
2021214N23154 2021 36 WP MM NOT_NAMED 2021-08-04 03:00:00 NR 29.6806 145.158 PROVISIONAL 760 691 P_____________ WP122021 29.6806 145.158 DB 20 1007 -3 1008 110 35 20 279
2021214N23154 2021 36 WP MM NOT_NAMED 2021-08-04 06:00:00 NR 29.8000 144.000 PROVISIONAL 686 642 O_____________ tcgp WP122021 29.8000 144.000 DB 20 1007 -3 1008 110 35 19 273
2021214N23154 2021 36 WP MM NOT_NAMED 2021-08-04 09:00:00 NR 29.7939 143.005 PROVISIONAL 638 615 P_____________ WP122021 29.7939 143.005 DB 20 1007 -3 1008 110 35 17 267
2021214N23154 2021 36 WP MM NOT_NAMED 2021-08-04 12:00:00 NR 29.7000 142.100 PROVISIONAL 615 601 O_____________ tcgp WP122021 29.7000 142.100 DB 20 1007 -3 1008 110 35 16 261
2021214N23154 2021 36 WP MM NOT_NAMED 2021-08-04 15:00:00 NR 29.5423 141.197 PROVISIONAL 611 596 P_____________ WP122021 29.5423 141.197 DB 22 1003 -3 1006 110 40 15 259
2021214N23154 2021 36 WP MM NOT_NAMED 2021-08-04 18:00:00 TS 29.4000 140.400 PROVISIONAL 599 585 O_____________ tcgp WP122021 29.4000 140.400 TD 25 1000 -1 1004 110 45 13 262
2021214N23154 2021 36 WP MM NOT_NAMED 2021-08-04 21:00:00 TS 29.3766 139.771 PROVISIONAL 585 550 P_____________ WP122021 29.3766 139.771 TD 25 1000 -1 1004 110 45 10 270
2021214N23154 2021 36 WP MM NOT_NAMED 2021-08-05 00:00:00 TS 29.4000 139.200 PROVISIONAL 550 519 O_____________ tcgp WP122021 29.4000 139.200 TD 25 1000 -1 1004 110 45 11 270
2021214N23154 2021 36 WP MM NOT_NAMED 2021-08-05 03:00:00 TS 29.3852 138.527 PROVISIONAL 514 488 P_____________ WP122021 29.3852 138.527 TD 25 999 -1 1003 110 40 11 270
2021214N23154 2021 36 WP MM NOT_NAMED 2021-08-05 06:00:00 TS 29.4000 137.900 PROVISIONAL 488 471 O_____________ tcgp WP122021 29.4000 137.900 TD 25 998 -1 1003 110 35 10 274
2021214N23154 2021 36 WP MM NOT_NAMED 2021-08-05 09:00:00 TS 29.4472 137.390 PROVISIONAL 471 438 P_____________ WP122021 29.4472 137.390 TD 25 998 -1 1003 110 35 8 284
2021214N23154 2021 36 WP MM NOT_NAMED 2021-08-05 12:00:00 TS 29.6000 137.000 PROVISIONAL 438 401 O_____________ tcgp WP122021 29.6000 137.000 TD 25 998 -1 1003 110 35 7 311
2021214N23154 2021 36 WP MM NOT_NAMED 2021-08-05 15:00:00 TS 29.9040 136.794 PROVISIONAL 401 352 P_____________ WP122021 29.9040 136.794 TD 25 996 -1 1002 102 35 8 328
2021214N23154 2021 36 WP MM NOT_NAMED 2021-08-05 18:00:00 TS 30.3000 136.500 PROVISIONAL 352 301 O_____________ tcgp WP122021 30.3000 136.500 TD 25 995 -1 1001 95 35 11 316
2021214N23154 2021 36 WP MM NOT_NAMED 2021-08-05 21:00:00 TS 30.7216 135.893 PROVISIONAL 301 249 P_____________ WP122021 30.7216 135.893 TD 25 996 -1 1002 95 35 15 302
2021214N23154 2021 36 WP MM NOT_NAMED 2021-08-06 00:00:00 TS 31.1000 135.000 PROVISIONAL 245 163 O_____________ tcgp WP122021 31.1000 135.000 TD 25 997 -1 1003 95 35 19 291
2021214N23154 2021 36 WP MM NOT_NAMED 2021-08-06 03:00:00 TS 31.4001 133.779 PROVISIONAL 163 118 P_____________ WP122021 31.4001 133.779 TD 25 998 -1 1003 95 35 21 281
2021214N23154 2021 36 WP MM NOT_NAMED 2021-08-06 06:00:00 TS 31.5000 132.600 PROVISIONAL 109 47 O_____________ tcgp WP122021 31.5000 132.600 TD 25 1000 -1 1003 95 35 16 267
2021214N23154 2021 36 WP MM NOT_NAMED 2021-08-06 09:00:00 TS 31.3282 131.856 PROVISIONAL 48 29 P_____________ WP122021 31.3282 131.856 TD 20 1001 -1 1004 95 35 11 244
2021214N23154 2021 36 WP MM NOT_NAMED 2021-08-06 12:00:00 NR 31.0000 131.400 PROVISIONAL 43 O_____________ tcgp WP122021 31.0000 131.400 DB 15 1003 -3 1005 95 35 10 230

デジタル台風データ・検索

IBTrACS Databaseについて

本データベースは、米国NOAAが公開する1842年以降の世界の熱帯低気圧のベストトラックデータアーカイブInternational Best Track Archive for Climate Stewardship (IBTrACS)を、ウェブで閲覧しやすい形式に変換したものです。

最終更新日:2022-09-26